Hlavní strana
METAR-TAF:

METAR-TAF

Letiště :

Bahrajn, Bahrajn

zeměpisná šířka: 26-16N, zeměpisná délka: 050-39E, výška: 2 m

Aktuální stav počasí

Zpráva byla vytvořena před 21 minutami, v 02:30 UTC
Jihojihovýchodní vítr 8 kt, proměnlivý mezi jihovýchodním a jižním
Teplota 27°C
Vlhkost vzduchu 51%
Tlak 1005 hPa
Viditelnost 10 km a více
Žádná oblačnost pod 1500 m, nevyskytují se cumulonimby.

METAR: OBBI 220230Z 16008KT 130V190 CAVOK 27/16 Q1005 NOSIG

Čas: 05:51 (02:51 UTC)

Předpověď počasí

Zpráva byla vytvořena před 3 hodinami a 51 minutami, v 23:00 UTC
Předpověď platná od 22 v 00 UTC do 23 v 06 UTC
Jihojihovýchodní vítr 15 kt
Viditelnost 10 km a více
Žádná oblačnost pod 1500 m, nevyskytují se cumulonimby.
Dočasný
od 22 v 07 UTC do 22 v 15 UTC
Viditelnost: 4000 m
zvířený prach

TAF: OBBI 212300Z 2200/2306 16015KT CAVOK TEMPO 2207/2215 4000 BLDU NSC

Stav a předpovědi počasí z více než 4 000 letišť (zprávy METAR a TAF).

Červené a žluté tečky na mapě představují dostupné meteorologické stanice.

Když kurzor umístíte na tečku, zobrazí se název stanice.

Pak kliknutím zobrazíte stav a předpověď počasí.

Chcete-li změnit mapu, kliknutím na zelené tlačítko se znaménkem +mapu přiblížíte, kliknutím na zelené tlačítko se znaménkem – mapu oddálíte a kliknutím na zelené šipky přejdete na sousední mapy.


METAR-TAF: